Time;durP1;ratioP1;P1;durP2;ratioP2;P2;SDS_P1;SDS_P2;PMS_P1;PMS_P2;Temp;Humidity;BMP_temperature;BMP_pressure;BME280_temperature;BME280_humidity;BME280_pressure;Samples;Min_cycle;Max_cycle;Signal;HPM_P1;HPM_P2
2021/05/29 00:01:10;;;;;;;8.07;6.50;;;;;;;14.75;100.00;102406.85;1810161;79;26350;-66
2021/05/29 00:03:41;;;;;;;7.27;6.50;;;;;;;14.79;100.00;102412.18;1810148;79;26668;-73
2021/05/29 00:06:11;;;;;;;10.10;6.83;;;;;;;14.70;100.00;102411.03;1810174;79;26302;-73
2021/05/29 00:08:41;;;;;;;8.30;6.13;;;;;;;14.68;100.00;102411.84;1810177;77;26407;-67
2021/05/29 00:11:12;;;;;;;8.47;6.13;;;;;;;14.72;100.00;102414.38;1810099;79;26314;-73
2021/05/29 00:13:42;;;;;;;8.43;6.13;;;;;;;14.70;100.00;102407.39;1810220;79;26757;-66
2021/05/29 00:16:13;;;;;;;8.57;7.13;;;;;;;14.69;100.00;102413.53;1810180;79;26691;-73
2021/05/29 00:18:43;;;;;;;7.93;6.87;;;;;;;14.66;100.00;102414.09;1810181;78;26221;-73
2021/05/29 00:21:13;;;;;;;8.73;7.37;;;;;;;14.54;100.00;102413.50;1810180;79;26212;-72
2021/05/29 00:23:43;;;;;;;8.20;7.27;;;;;;;14.61;100.00;102414.62;1810494;79;26236;-73
2021/05/29 00:26:13;;;;;;;8.47;6.53;;;;;;;14.65;100.00;102412.96;1810085;79;26193;-73
2021/05/29 00:28:43;;;;;;;10.10;7.13;;;;;;;14.61;100.00;102410.43;1810193;79;26288;-73
2021/05/29 00:31:13;;;;;;;8.40;6.33;;;;;;;14.56;100.00;102407.91;1811614;78;26322;-73
2021/05/29 00:33:43;;;;;;;8.10;6.97;;;;;;;14.51;100.00;102412.07;1810103;79;26306;-67
2021/05/29 00:36:13;;;;;;;10.43;7.33;;;;;;;14.62;100.00;102405.12;1810250;79;26271;-73
2021/05/29 00:38:47;;;;;;;10.33;7.30;;;;;;;14.55;100.00;102410.96;1810447;79;26311;-73
2021/05/29 00:41:15;;;;;;;9.50;7.33;;;;;;;14.41;100.00;102407.01;1809899;78;26249;-72
2021/05/29 00:43:46;;;;;;;8.27;6.87;;;;;;;14.40;100.00;102409.52;1810056;79;26241;-73
2021/05/29 00:46:16;;;;;;;9.43;6.57;;;;;;;14.40;100.00;102408.96;1810135;79;26636;-67
2021/05/29 00:48:47;;;;;;;9.10;7.17;;;;;;;14.38;100.00;102410.33;1810247;79;26205;-72
2021/05/29 00:51:17;;;;;;;11.00;6.73;;;;;;;14.39;100.00;102407.83;1810001;79;26680;-73
2021/05/29 00:53:48;;;;;;;8.77;7.67;;;;;;;14.40;100.00;102412.31;1810187;79;26241;-67
2021/05/29 00:56:18;;;;;;;8.47;6.93;;;;;;;14.51;100.00;102407.03;1810585;79;26240;-67
2021/05/29 00:58:48;;;;;;;12.70;8.23;;;;;;;14.53;100.00;102408.45;1810326;79;26241;-73
2021/05/29 01:01:18;;;;;;;9.93;7.63;;;;;;;14.40;100.00;102407.56;1810226;79;26348;-72
2021/05/29 01:03:48;;;;;;;9.80;7.40;;;;;;;14.28;100.00;102399.93;1810320;79;26228;-66
2021/05/29 01:06:18;;;;;;;8.37;7.40;;;;;;;14.26;100.00;102401.30;1810190;79;26318;-67
2021/05/29 01:08:49;;;;;;;10.07;7.03;;;;;;;14.30;100.00;102401.88;1810388;77;26676;-72
2021/05/29 01:11:18;;;;;;;11.80;8.43;;;;;;;14.41;100.00;102396.67;1810282;79;26213;-66
2021/05/29 01:13:48;;;;;;;8.20;7.00;;;;;;;14.34;100.00;102404.97;1810438;79;26291;-66
2021/05/29 01:16:40;;;;;;;9.53;6.53;;;;;;;14.28;100.00;102393.50;1810291;79;26287;-67
2021/05/29 01:18:50;;;;;;;9.47;6.97;;;;;;;14.38;100.00;102408.38;1807746;78;26245;-72
2021/05/29 01:21:20;;;;;;;10.63;7.03;;;;;;;14.29;100.00;102408.58;1810277;79;26233;-66
2021/05/29 01:23:50;;;;;;;10.23;7.03;;;;;;;14.16;100.00;102406.86;1810183;79;26734;-66
2021/05/29 01:26:19;;;;;;;7.40;6.60;;;;;;;14.18;100.00;102411.60;1809957;79;26248;-67
2021/05/29 01:28:54;;;;;;;7.80;6.90;;;;;;;14.25;100.00;102410.23;1810326;79;26620;-66
2021/05/29 01:31:26;;;;;;;8.80;7.30;;;;;;;14.34;100.00;102408.61;1809645;78;26345;-72
2021/05/29 01:33:57;;;;;;;9.17;7.03;;;;;;;14.43;100.00;102407.00;1809989;79;26361;-73
2021/05/29 01:36:28;;;;;;;9.53;7.53;;;;;;;14.28;100.00;102408.32;1810380;79;26368;-67
2021/05/29 01:38:58;;;;;;;10.23;7.63;;;;;;;14.11;100.00;102410.47;1810105;79;26716;-72
2021/05/29 01:41:28;;;;;;;8.80;7.17;;;;;;;14.10;100.00;102414.36;1810468;79;26225;-72
2021/05/29 01:43:59;;;;;;;9.53;7.97;;;;;;;14.17;100.00;102413.55;1810106;79;26502;-72
2021/05/29 01:46:29;;;;;;;11.67;7.47;;;;;;;14.13;100.00;102421.64;1810128;79;26232;-72
2021/05/29 01:48:59;;;;;;;9.60;7.27;;;;;;;14.12;100.00;102416.31;1810069;79;26233;-72
2021/05/29 01:51:29;;;;;;;8.83;6.77;;;;;;;14.06;100.00;102418.81;1810114;79;26691;-72
2021/05/29 01:53:59;;;;;;;9.27;6.50;;;;;;;14.08;100.00;102415.17;1810122;79;26237;-72
2021/05/29 01:56:29;;;;;;;7.23;6.53;;;;;;;14.16;100.00;102413.30;1810129;79;26315;-73
2021/05/29 01:58:59;;;;;;;11.07;7.20;;;;;;;14.25;100.00;102410.23;1810195;79;26299;-73
2021/05/29 02:01:28;;;;;;;7.17;6.47;;;;;;;14.25;100.00;102410.83;1810139;79;26354;-73
2021/05/29 02:03:59;;;;;;;10.17;7.63;;;;;;;14.19;100.00;102407.70;1810628;79;26698;-73
2021/05/29 02:06:28;;;;;;;7.80;6.70;;;;;;;14.12;100.00;102405.14;1810514;79;26225;-66
2021/05/29 02:08:58;;;;;;;10.80;7.20;;;;;;;14.03;100.00;102406.20;1810428;79;26237;-66
2021/05/29 02:11:28;;;;;;;9.53;7.30;;;;;;;14.05;100.00;102409.59;1810148;79;26252;-72
2021/05/29 02:13:58;;;;;;;8.87;7.30;;;;;;;14.06;100.00;102420.20;1810051;79;26248;-66
2021/05/29 02:16:28;;;;;;;8.17;6.33;;;;;;;14.13;100.00;102420.80;1810073;79;26219;-73
2021/05/29 02:18:57;;;;;;;9.73;7.23;;;;;;;14.16;100.00;102422.23;1810044;78;26287;-67
2021/05/29 02:21:27;;;;;;;9.50;7.30;;;;;;;14.13;100.00;102425.84;1809975;79;26295;-73
2021/05/29 02:23:57;;;;;;;9.10;7.17;;;;;;;14.08;100.00;102426.35;1810284;79;26690;-73
2021/05/29 02:26:27;;;;;;;10.47;7.03;;;;;;;14.05;100.00;102429.70;1810035;79;26232;-73
2021/05/29 02:28:58;;;;;;;7.97;6.07;;;;;;;13.82;100.00;102430.12;1810230;79;26318;-73
2021/05/29 02:31:27;;;;;;;8.83;5.60;;;;;;;13.89;100.00;102438.55;1810088;79;26287;-68
2021/05/29 02:33:57;;;;;;;7.77;6.10;;;;;;;13.96;100.00;102443.33;1810301;79;26707;-72
2021/05/29 02:36:27;;;;;;;8.23;6.00;;;;;;;13.97;100.00;102437.19;1810021;79;26252;-67
2021/05/29 02:38:57;;;;;;;8.63;6.13;;;;;;;13.79;100.00;102439.02;1810041;79;26701;-66
2021/05/29 02:41:27;;;;;;;8.17;5.70;;;;;;;13.86;100.00;102435.45;1810049;79;26225;-73
2021/05/29 02:43:57;;;;;;;9.40;6.33;;;;;;;13.85;100.00;102449.97;1810080;79;26722;-67
2021/05/29 02:46:27;;;;;;;8.00;6.33;;;;;;;13.91;100.00;102446.09;1810446;79;26681;-73
2021/05/29 02:48:57;;;;;;;6.70;6.00;;;;;;;13.92;100.00;102448.33;1810177;79;26303;-72
2021/05/29 02:51:27;;;;;;;8.07;5.80;;;;;;;13.88;100.00;102453.62;1810132;79;26711;-72
2021/05/29 02:53:56;;;;;;;10.50;5.97;;;;;;;13.84;100.00;102448.28;1810079;79;26248;-66
2021/05/29 02:56:26;;;;;;;8.50;5.63;;;;;;;13.88;100.00;102459.76;1809970;79;26256;-73
2021/05/29 02:58:56;;;;;;;7.23;5.67;;;;;;;13.86;100.00;102450.23;1810290;79;26237;-67
2021/05/29 03:01:26;;;;;;;5.97;5.20;;;;;;;13.86;100.00;102458.61;1809921;79;26229;-66
2021/05/29 03:03:56;;;;;;;8.03;5.97;;;;;;;13.89;100.00;102462.30;1809938;79;26723;-66
2021/05/29 03:06:27;;;;;;;6.60;5.70;;;;;;;13.81;100.00;102456.36;1810133;79;26234;-67
2021/05/29 03:08:58;;;;;;;8.33;5.83;;;;;;;13.82;100.00;102459.45;1810133;79;26719;-67
2021/05/29 03:11:31;;;;;;;7.23;5.43;;;;;;;13.81;100.00;102460.00;1810018;77;26764;-72
2021/05/29 03:14:01;;;;;;;7.30;5.07;;;;;;;13.74;100.00;102462.70;1810098;79;26732;-66
2021/05/29 03:16:31;;;;;;;7.63;5.57;;;;;;;13.81;100.00;102471.17;1810007;79;26323;-72
2021/05/29 03:19:01;;;;;;;7.20;5.37;;;;;;;13.74;100.00;102471.09;1810037;78;26397;-72
2021/05/29 03:21:31;;;;;;;7.53;5.73;;;;;;;13.74;100.00;102471.09;1810186;79;26689;-73
2021/05/29 03:24:01;;;;;;;7.77;5.77;;;;;;;13.78;100.00;102469.48;1810103;79;26213;-72
2021/05/29 03:26:31;;;;;;;6.70;6.00;;;;;;;13.74;100.00;102474.72;1810055;79;26245;-73
2021/05/29 03:29:01;;;;;;;9.20;6.13;;;;;;;13.75;100.00;102474.17;1810078;79;26628;-72
2021/05/29 03:31:33;;;;;;;7.20;5.20;;;;;;;13.73;100.00;102477.26;1810181;79;26177;-66
2021/05/29 03:34:04;;;;;;;9.80;5.83;;;;;;;13.73;100.00;102476.41;1810056;79;26252;-67
2021/05/29 03:36:34;;;;;;;10.73;6.27;;;;;;;13.72;100.00;102478.91;1810059;79;27015;-66
2021/05/29 03:39:07;;;;;;;11.50;6.50;;;;;;;13.68;100.00;102482.24;1809963;79;26300;-66
2021/05/29 03:41:36;;;;;;;8.07;6.03;;;;;;;13.68;100.00;102482.24;1810020;79;26648;-71
2021/05/29 03:44:07;;;;;;;9.83;6.33;;;;;;;13.75;100.00;102482.55;1810003;79;26691;-65
2021/05/29 03:46:37;;;;;;;9.93;7.20;;;;;;;13.76;100.00;102487.04;1810185;79;26248;-73
2021/05/29 03:49:06;;;;;;;9.83;7.57;;;;;;;13.70;100.00;102481.95;1810044;79;26283;-65
2021/05/29 03:51:54;;;;;;;10.37;6.87;;;;;;;13.64;100.00;102482.48;1764915;80;33334;-65
2021/05/29 03:54:23;;;;;;;8.87;6.83;;;;;;;13.62;100.00;102472.12;1764828;81;26794;-65
2021/05/29 03:56:53;;;;;;;7.47;6.70;;;;;;;13.66;100.00;102482.20;1764863;81;26281;-66
2021/05/29 03:59:23;;;;;;;7.03;5.73;;;;;;;13.67;100.00;102483.34;1765289;81;26289;-71
2021/05/29 04:01:53;;;;;;;8.17;6.20;;;;;;;13.76;100.00;102480.06;1754037;80;932893;-71
2021/05/29 04:04:23;;;;;;;10.77;6.10;;;;;;;13.76;100.00;102483.70;1763373;81;26813;-65
2021/05/29 04:06:53;;;;;;;8.03;5.83;;;;;;;13.64;100.00;102490.87;1764990;81;26273;-66
2021/05/29 04:09:23;;;;;;;7.60;6.30;;;;;;;13.60;100.00;102492.51;1753495;80;26288;-65
2021/05/29 04:11:53;;;;;;;7.97;6.83;;;;;;;13.62;100.00;102492.22;1753086;81;26382;-65
2021/05/29 04:14:22;;;;;;;10.03;6.40;;;;;;;13.60;100.00;102496.70;1753172;82;26237;-66
2021/05/29 04:16:52;;;;;;;8.60;6.20;;;;;;;13.58;100.00;102494.70;1753170;82;26700;-65
2021/05/29 04:19:22;;;;;;;10.57;7.90;;;;;;;13.71;100.00;102502.35;1753149;82;26375;-72
2021/05/29 04:21:52;;;;;;;9.63;7.13;;;;;;;13.68;100.00;102501.80;1753176;82;26767;-72
2021/05/29 04:24:22;;;;;;;14.60;8.63;;;;;;;13.65;100.00;102502.30;1807150;79;26300;-72
2021/05/29 04:26:52;;;;;;;13.87;7.73;;;;;;;13.67;100.00;102497.31;1809989;79;26240;-72
2021/05/29 04:29:22;;;;;;;12.03;7.27;;;;;;;13.72;100.00;102503.49;1810152;79;26328;-65
2021/05/29 04:31:52;;;;;;;11.37;7.97;;;;;;;13.71;100.00;102505.99;1810139;79;26359;-72
2021/05/29 04:34:22;;;;;;;9.87;7.00;;;;;;;13.64;100.00;102502.59;1810201;79;26323;-65
2021/05/29 04:36:52;;;;;;;10.70;7.00;;;;;;;13.66;100.00;102503.14;1810090;79;26248;-66
2021/05/29 04:39:22;;;;;;;8.87;6.97;;;;;;;13.71;100.00;102505.14;1810028;79;26307;-65
2021/05/29 04:41:52;;;;;;;11.00;6.90;;;;;;;13.80;100.00;102506.34;1810125;79;26216;-72
2021/05/29 04:44:22;;;;;;;12.30;8.03;;;;;;;13.87;100.00;102508.34;1810176;79;26265;-66
2021/05/29 04:46:52;;;;;;;10.03;7.43;;;;;;;13.81;100.00;102515.86;1810020;79;26240;-67
2021/05/29 04:49:24;;;;;;;8.00;6.87;;;;;;;13.83;100.00;102515.03;1810308;79;26297;-73
2021/05/29 04:51:55;;;;;;;10.83;7.40;;;;;;;13.76;100.00;102520.00;1810226;79;26192;-72
2021/05/29 04:54:24;;;;;;;12.77;7.47;;;;;;;13.66;100.00;102519.91;1810329;79;26707;-73
2021/05/29 04:56:55;;;;;;;12.33;8.83;;;;;;;13.68;100.00;102524.13;1810338;79;26685;-66
2021/05/29 04:59:24;;;;;;;10.20;7.60;;;;;;;13.62;100.00;102516.80;1810207;79;26295;-66
2021/05/29 05:01:54;;;;;;;11.80;8.50;;;;;;;13.58;100.00;102525.97;1810042;79;26290;-66
2021/05/29 05:04:25;;;;;;;11.00;7.27;;;;;;;13.58;100.00;102520.39;1810431;79;26209;-72
2021/05/29 05:06:55;;;;;;;11.30;8.23;;;;;;;13.69;100.00;102527.77;1810232;79;26796;-72
2021/05/29 05:09:25;;;;;;;10.67;7.73;;;;;;;13.64;100.00;102531.91;1810249;79;26766;-73
2021/05/29 05:11:57;;;;;;;11.30;7.53;;;;;;;13.66;100.00;102520.75;1810184;78;26296;-72
2021/05/29 05:14:27;;;;;;;11.07;7.47;;;;;;;13.62;100.00;102518.75;1810244;79;26244;-66
2021/05/29 05:16:57;;;;;;;11.77;8.37;;;;;;;13.64;100.00;102520.73;1810242;79;26278;-72
2021/05/29 05:19:27;;;;;;;12.33;9.23;;;;;;;13.67;100.00;102521.05;1809992;78;26236;-73
2021/05/29 05:21:57;;;;;;;10.37;7.47;;;;;;;13.82;100.00;102519.50;1810082;79;26311;-72
2021/05/29 05:24:27;;;;;;;10.97;8.27;;;;;;;13.90;100.00;102516.22;1809995;79;26758;-74
2021/05/29 05:26:57;;;;;;;10.77;7.63;;;;;;;13.87;100.00;102520.91;1810208;79;26291;-67
2021/05/29 05:29:27;;;;;;;9.77;6.90;;;;;;;13.77;100.00;102516.11;1810161;79;26202;-66
2021/05/29 05:31:57;;;;;;;11.73;7.33;;;;;;;13.73;100.00;102521.95;1810314;79;26244;-72
2021/05/29 05:34:29;;;;;;;9.23;7.70;;;;;;;13.66;100.00;102520.75;1810042;79;26236;-66
2021/05/29 05:36:59;;;;;;;12.47;8.17;;;;;;;13.73;100.00;102523.89;1810182;79;26679;-66
2021/05/29 05:39:29;;;;;;;12.30;8.13;;;;;;;13.71;100.00;102523.30;1810324;79;26244;-66
2021/05/29 05:41:59;;;;;;;14.07;8.43;;;;;;;13.67;100.00;102518.25;1810213;79;26227;-72
2021/05/29 05:44:29;;;;;;;10.73;8.60;;;;;;;13.67;100.00;102526.62;1810114;79;26229;-66
2021/05/29 05:46:59;;;;;;;13.03;7.87;;;;;;;13.72;100.00;102527.23;1809991;79;26593;-74
2021/05/29 05:49:29;;;;;;;12.67;7.67;;;;;;;13.82;100.00;102528.70;1810064;79;26232;-72
2021/05/29 05:51:59;;;;;;;9.07;6.80;;;;;;;13.96;100.00;102531.89;1810053;79;26294;-67
2021/05/29 05:54:29;;;;;;;11.23;8.13;;;;;;;14.01;100.00;102535.58;1810195;79;26201;-72
2021/05/29 05:56:59;;;;;;;12.73;8.03;;;;;;;14.00;100.00;102540.03;1810225;79;26251;-72
2021/05/29 05:59:29;;;;;;;12.67;8.60;;;;;;;13.86;100.00;102540.21;1810150;79;26209;-66
2021/05/29 06:01:59;;;;;;;10.33;8.07;;;;;;;13.92;100.00;102537.73;1810306;79;26245;-66
2021/05/29 06:04:29;;;;;;;10.57;8.23;;;;;;;13.99;100.00;102543.38;1810406;79;26688;-67
2021/05/29 06:06:59;;;;;;;13.47;8.43;;;;;;;13.96;100.00;102543.91;1810229;79;26381;-66
2021/05/29 06:09:29;;;;;;;12.43;8.03;;;;;;;14.16;100.00;102541.86;1810013;79;26338;-66
2021/05/29 06:11:59;;;;;;;9.03;7.83;;;;;;;14.19;100.00;102547.45;1810046;79;26801;-72
2021/05/29 06:20:09;;;;;;;14.40;9.87;;;;;;;14.33;100.00;102544.48;1810140;78;26256;-72
2021/05/29 06:22:39;;;;;;;11.73;7.97;;;;;;;14.23;100.00;102556.98;1810039;79;26750;-72
2021/05/29 06:25:12;;;;;;;16.13;9.30;;;;;;;14.17;100.00;102554.70;1810019;79;26193;-66
2021/05/29 06:27:42;;;;;;;10.50;8.37;;;;;;;14.44;100.00;102556.05;1810102;79;26723;-73
2021/05/29 06:30:14;;;;;;;11.83;8.93;;;;;;;14.37;100.00;102553.50;1810137;79;26221;-66
2021/05/29 06:32:44;;;;;;;11.63;9.37;;;;;;;14.35;100.00;102561.30;1810514;79;26197;-73
2021/05/29 06:35:15;;;;;;;12.50;8.87;;;;;;;14.33;100.00;102559.31;1810385;79;26299;-73
2021/05/29 06:37:46;;;;;;;12.80;9.33;;;;;;;14.45;100.00;102558.58;1810044;79;26342;-66
2021/05/29 06:40:16;;;;;;;11.90;9.97;;;;;;;14.46;100.00;102560.24;1809995;79;26295;-66
2021/05/29 06:42:46;;;;;;;12.17;10.30;;;;;;;14.52;100.00;102566.17;1810100;79;26205;-73
2021/05/29 06:45:17;;;;;;;12.87;10.37;;;;;;;14.63;100.00;102569.88;1810242;78;26252;-66
2021/05/29 06:47:47;;;;;;;13.17;11.57;;;;;;;14.65;100.00;102563.45;1810184;79;26204;-73
2021/05/29 06:50:17;;;;;;;14.93;10.77;;;;;;;14.61;100.00;102566.50;1810067;79;26299;-73
2021/05/29 06:52:51;;;;;;;14.27;10.77;;;;;;;14.67;100.00;102570.18;1810248;79;26225;-66
2021/05/29 06:58:42;;;;;;;11.43;10.23;;;;;;;14.84;100.00;102579.23;1769579;78;26704;-67
2021/05/29 07:01:11;;;;;;;16.50;11.40;;;;;;;14.88;100.00;102580.37;1810207;79;26372;-66
2021/05/29 07:03:41;;;;;;;13.13;11.00;;;;;;;14.88;100.00;102584.02;1810134;78;26252;-66
2021/05/29 07:06:11;;;;;;;13.17;11.80;;;;;;;14.88;100.00;102584.56;1810095;79;26318;-72
2021/05/29 07:08:41;;;;;;;16.93;12.67;;;;;;;14.93;100.00;102584.59;1810114;79;26280;-66
2021/05/29 07:11:11;;;;;;;18.00;12.90;;;;;;;15.00;100.00;102586.02;1810508;79;26645;-67
2021/05/29 07:13:41;;;;;;;17.37;12.53;;;;;;;15.10;100.00;102587.19;1809999;77;26264;-72
2021/05/29 07:16:11;;;;;;;16.03;12.70;;;;;;;15.26;100.00;102592.57;1810438;79;26287;-72
2021/05/29 07:18:45;;;;;;;18.00;12.93;;;;;;;15.22;100.00;102590.04;1810035;78;26232;-67
2021/05/29 07:21:17;;;;;;;18.40;13.47;;;;;;;15.30;100.00;102594.26;1810072;79;26653;-73
2021/05/29 07:23:47;;;;;;;18.53;13.60;;;;;;;15.31;100.00;102594.55;1810031;79;26217;-73
2021/05/29 07:26:20;;;;;;;17.93;14.67;;;;;;;15.37;100.00;102599.87;1810028;79;26232;-72
2021/05/29 07:28:51;;;;;;;16.33;13.13;;;;;;;15.30;100.00;102599.30;1810236;78;26633;-72
2021/05/29 07:31:21;;;;;;;17.43;14.63;;;;;;;15.28;100.00;102594.52;1810089;79;26237;-66
2021/05/29 07:33:54;;;;;;;17.13;14.53;;;;;;;15.30;100.00;102599.30;1810074;79;26384;-72
2021/05/29 07:36:23;;;;;;;19.53;14.77;;;;;;;15.38;100.00;102597.37;1810069;79;26707;-73
2021/05/29 07:38:53;;;;;;;18.03;14.10;;;;;;;15.39;100.00;102597.66;1810007;79;26319;-67
2021/05/29 07:41:23;;;;;;;15.30;13.70;;;;;;;15.51;100.00;102604.44;1810469;78;26228;-67
2021/05/29 07:43:53;;;;;;;17.97;15.33;;;;;;;15.49;100.00;102608.88;1809906;79;26712;-67
2021/05/29 07:46:23;;;;;;;20.17;16.07;;;;;;;15.52;100.00;102605.28;1810038;79;26252;-72
2021/05/29 07:48:53;;;;;;;19.57;16.13;;;;;;;15.43;100.00;102607.19;1810114;79;26248;-71
2021/05/29 07:51:24;;;;;;;20.87;15.77;;;;;;;15.68;100.00;102606.45;1810083;79;26225;-67
2021/05/29 07:53:54;;;;;;;21.20;16.97;;;;;;;15.65;100.00;102617.37;1810610;78;26283;-67
2021/05/29 07:56:24;;;;;;;20.33;17.27;;;;;;;15.79;100.00;102622.70;1810440;79;26198;-72
2021/05/29 07:58:54;;;;;;;19.60;16.63;;;;;;;15.70;100.00;102613.18;1810164;79;26245;-67
2021/05/29 08:01:24;;;;;;;19.27;15.53;;;;;;;15.72;100.00;102618.78;1810417;78;26699;-67
2021/05/29 08:03:54;;;;;;;22.33;17.60;;;;;;;15.78;100.00;102619.64;1810023;79;26303;-72
2021/05/29 08:06:26;;;;;;;21.37;17.50;;;;;;;15.78;100.00;102616.84;1810005;79;26712;-72
2021/05/29 08:08:56;;;;;;;21.17;17.33;;;;;;;15.77;100.00;102617.95;1810452;78;26692;-67
2021/05/29 08:11:26;;;;;;;21.97;16.77;;;;;;;15.80;100.00;102630.84;1810806;78;26288;-73
2021/05/29 08:13:59;;;;;;;19.27;15.20;;;;;;;15.88;100.00;102628.89;1810046;79;26727;-72
2021/05/29 08:16:29;;;;;;;16.73;13.30;;;;;;;15.96;100.00;102633.69;1800399;79;26217;-73
2021/05/29 08:18:59;;;;;;;18.13;14.47;;;;;;;15.99;100.00;102630.32;1816427;78;26249;-73
2021/05/29 08:21:29;;;;;;;18.33;13.60;;;;;;;15.95;100.00;102628.64;1816504;79;26313;-67
2021/05/29 08:24:00;;;;;;;17.37;15.03;;;;;;;16.16;100.00;102626.13;1816412;78;26241;-67
2021/05/29 08:26:31;;;;;;;17.13;14.40;;;;;;;16.05;100.00;102634.80;1815359;79;26675;-66
2021/05/29 08:29:01;;;;;;;19.27;13.97;;;;;;;16.32;100.00;102630.62;1810246;79;26232;-73
2021/05/29 08:31:31;;;;;;;17.60;14.97;;;;;;;16.34;100.00;102640.16;1810270;79;26229;-67
2021/05/29 08:34:01;;;;;;;17.77;12.33;;;;;;;16.28;100.00;102636.52;1810168;79;26708;-73
2021/05/29 08:36:31;;;;;;;16.23;13.60;;;;;;;16.29;100.00;102635.95;1810219;79;26287;-72
2021/05/29 08:39:01;;;;;;;16.90;12.87;;;;;;;16.43;100.00;102644.06;1810365;79;26213;-73
2021/05/29 08:41:31;;;;;;;16.90;13.03;;;;;;;16.39;100.00;102644.34;1810186;79;26305;-66
2021/05/29 08:44:01;;;;;;;15.83;11.97;;;;;;;16.36;100.00;102640.70;1810504;79;26291;-73
2021/05/29 08:46:31;;;;;;;14.57;11.93;;;;;;;16.51;100.00;102637.07;1810228;79;26624;-72
2021/05/29 08:49:01;;;;;;;17.23;13.37;;;;;;;16.54;100.00;102630.33;1810371;79;26243;-73
2021/05/29 08:51:31;;;;;;;17.03;13.33;;;;;;;16.63;100.00;102626.42;1810220;79;26295;-73
2021/05/29 08:54:03;;;;;;;15.80;12.97;;;;;;;16.73;100.00;102632.00;1810263;79;26271;-67
2021/05/29 08:56:34;;;;;;;15.23;12.67;;;;;;;16.96;100.00;102637.57;1810160;79;26228;-66
2021/05/29 08:59:04;;;;;;;16.13;13.27;;;;;;;17.03;100.00;102636.14;1810378;79;26238;-66
2021/05/29 09:01:34;;;;;;;15.93;12.87;;;;;;;17.12;100.00;102637.80;1810207;79;26235;-66
2021/05/29 09:04:08;;;;;;;16.20;12.40;;;;;;;17.10;100.00;102627.43;1810241;79;26726;-66
2021/05/29 09:06:44;;;;;;;16.97;13.13;;;;;;;17.15;100.00;102633.87;1810167;79;26199;-73
2021/05/29 09:09:16;;;;;;;19.80;13.30;;;;;;;17.15;100.00;102631.62;1810339;79;26266;-73
2021/05/29 09:11:52;;;;;;;15.97;12.40;;;;;;;17.43;100.00;102632.91;1810178;79;26295;-66
2021/05/29 09:14:41;;;;;;;16.30;12.83;;;;;;;17.55;100.00;102632.84;1810277;79;26677;-66
2021/05/29 09:17:19;;;;;;;18.17;12.27;;;;;;;17.62;100.00;102633.98;1810288;79;26635;-73
2021/05/29 09:19:58;;;;;;;15.80;12.77;;;;;;;17.68;100.00;102632.23;1810300;78;26778;-67
2021/05/29 09:22:32;;;;;;;16.30;12.50;;;;;;;18.01;100.00;102629.80;1810143;79;26207;-67
2021/05/29 09:25:23;;;;;;;15.33;12.13;;;;;;;18.01;100.00;102629.80;1810151;79;24236;-67
2021/05/29 09:27:56;;;;;;;15.17;11.43;;;;;;;18.28;100.00;102637.16;1810141;79;26681;-73
2021/05/29 09:30:44;;;;;;;12.27;10.10;;;;;;;18.34;100.00;102641.62;1810149;79;24175;-67
2021/05/29 09:33:16;;;;;;;10.97;9.37;;;;;;;18.73;100.00;102635.95;1810315;78;26205;-73
2021/05/29 09:35:56;;;;;;;11.80;9.33;;;;;;;18.62;100.00;102638.58;1810152;79;24155;-66
2021/05/29 09:38:28;;;;;;;12.17;8.53;;;;;;;18.75;100.00;102635.64;1810255;79;24202;-72
2021/05/29 09:40:58;;;;;;;9.73;8.10;;;;;;;18.63;100.00;102641.67;1809903;78;26294;-68
2021/05/29 09:43:29;;;;;;;9.17;8.07;;;;;;;18.70;100.00;102639.94;1810033;79;24308;-73
2021/05/29 09:46:04;;;;;;;11.83;8.13;;;;;;;18.65;100.00;102638.82;1810300;79;26203;-65
2021/05/29 09:48:34;;;;;;;9.90;8.60;;;;;;;18.95;100.00;102643.33;1810134;79;24642;-72
2021/05/29 09:51:08;;;;;;;9.53;7.30;;;;;;;18.99;100.00;102646.38;1810155;79;24128;-65
2021/05/29 09:53:39;;;;;;;8.47;6.90;;;;;;;19.09;100.00;102640.61;1810203;79;24731;-72
2021/05/29 09:56:11;;;;;;;8.67;7.17;;;;;;;19.04;100.00;102642.08;1810183;79;24151;-66
2021/05/29 09:58:52;;;;;;;10.33;8.20;;;;;;;19.06;100.00;102651.92;1809298;78;24645;-71
2021/05/29 10:01:42;;;;;;;10.83;6.53;;;;;;;19.27;100.00;102649.70;1810133;79;24602;-72
2021/05/29 10:04:15;;;;;;;8.60;6.83;;;;;;;19.42;100.00;102648.69;1810193;79;24147;-66
2021/05/29 10:06:55;;;;;;;9.30;6.83;;;;;;;19.67;100.00;102642.73;1810531;79;24183;-72
2021/05/29 10:09:25;;;;;;;9.57;7.10;;;;;;;19.73;100.00;102647.72;1810161;79;24217;-72
2021/05/29 10:11:56;;;;;;;6.97;5.90;;;;;;;19.68;100.00;102648.62;1810316;79;24252;-73
2021/05/29 10:14:27;;;;;;;7.83;6.87;;;;;;;19.72;100.00;102647.47;1810315;79;24295;-66
2021/05/29 10:16:58;;;;;;;8.53;6.73;;;;;;;19.84;100.00;102646.45;1810052;77;24254;-66
2021/05/29 10:19:30;;;;;;;8.57;6.33;;;;;;;19.75;100.00;102646.28;1810291;78;24299;-66
2021/05/29 10:22:05;;;;;;;11.23;7.00;;;;;;;19.91;100.00;102640.69;1810199;79;24187;-66
2021/05/29 10:24:36;;;;;;;7.17;5.93;;;;;;;19.92;100.00;102651.40;1810050;79;24225;-66
2021/05/29 10:27:11;;;;;;;9.57;4.80;;;;;;;19.97;100.00;102647.94;1810097;79;24594;-66
2021/05/29 10:29:42;;;;;;;6.10;4.40;;;;;;;19.99;100.00;102645.63;1810280;79;24162;-73
2021/05/29 10:32:16;;;;;;;4.53;4.07;;;;;;;20.00;100.00;102643.09;1810166;79;24245;-66
2021/05/29 10:34:57;;;;;;;7.60;4.63;;;;;;;20.11;100.00;102644.35;1810234;79;24221;-66
2021/05/29 10:37:34;;;;;;;5.90;4.47;;;;;;;20.15;100.00;102646.22;1810176;79;24147;-66
2021/05/29 10:40:25;;;;;;;5.73;4.67;;;;;;;20.08;100.00;102649.17;1810096;79;24131;-67
2021/05/29 10:43:16;;;;;;;6.67;4.87;;;;;;;20.10;100.00;102644.92;1810160;79;26642;-67
2021/05/29 10:46:23;;;;;;;3.93;3.63;;;;;;;20.15;100.00;102649.64;1810204;79;24223;-67
2021/05/29 10:48:54;;;;;;;4.60;4.00;;;;;;;20.27;100.00;102647.19;1778956;81;24302;-73
2021/05/29 10:51:27;;;;;;;6.53;3.90;;;;;;;20.22;100.00;102644.44;1779023;81;24296;-67
2021/05/29 10:53:58;;;;;;;5.13;4.10;;;;;;;20.39;100.00;102647.00;1777464;81;24172;-66
2021/05/29 10:56:34;;;;;;;6.23;3.50;;;;;;;20.43;100.00;102646.66;1779265;81;24643;-66
2021/05/29 10:59:11;;;;;;;6.27;4.03;;;;;;;20.50;100.00;102642.00;1778930;81;26306;-73
2021/05/29 11:02:02;;;;;;;5.30;3.83;;;;;;;20.45;100.00;102646.36;1778975;81;24197;-72
2021/05/29 11:04:33;;;;;;;4.83;3.53;;;;;;;20.43;100.00;102639.59;1779169;81;24225;-73
2021/05/29 11:07:22;;;;;;;4.47;3.57;;;;;;;20.40;100.00;102643.61;1778938;81;24251;-66
2021/05/29 11:09:56;;;;;;;4.47;4.07;;;;;;;20.51;100.00;102647.92;1778999;81;24223;-72
2021/05/29 11:12:56;;;;;;;5.83;3.80;;;;;;;20.60;100.00;102641.84;1778993;81;24164;-66
2021/05/29 11:15:57;;;;;;;5.30;3.23;;;;;;;20.54;100.00;102647.30;1779009;81;24613;-66
2021/05/29 11:18:27;;;;;;;4.17;3.70;;;;;;;20.63;100.00;102643.19;1778956;79;24284;-66
2021/05/29 11:21:06;;;;;;;4.13;3.30;;;;;;;20.63;100.00;102646.86;1807757;79;24154;-72
2021/05/29 11:23:37;;;;;;;5.97;4.03;;;;;;;20.61;100.00;102643.52;1810120;79;24134;-72
2021/05/29 11:26:07;;;;;;;5.03;3.97;;;;;;;20.71;100.00;102642.51;1809987;79;24151;-67
2021/05/29 11:28:37;;;;;;;5.17;4.33;;;;;;;20.73;100.00;102643.86;1809715;79;24140;-67
2021/05/29 11:31:09;;;;;;;3.50;3.10;;;;;;;20.65;100.00;102646.56;1810063;79;24239;-72
2021/05/29 11:33:39;;;;;;;3.27;2.93;;;;;;;20.76;100.00;102646.05;1810010;79;24159;-67
2021/05/29 11:36:09;;;;;;;4.47;4.07;;;;;;;20.94;100.00;102642.90;1810004;79;24296;-73
2021/05/29 11:38:40;;;;;;;4.37;3.73;;;;;;;21.13;100.00;102644.27;1810072;79;24195;-72
2021/05/29 11:41:11;;;;;;;6.57;3.57;;;;;;;21.09;100.00;102646.86;1810031;79;24152;-73